sensor_id;sensor_type;location;lat;lon;timestamp;temperature;humidity
18974;DHT22;9621;48.690;9.466;2024-03-08T00:02:19;0.90;99.90
18974;DHT22;9621;48.690;9.466;2024-03-08T00:04:46;0.80;99.90
18974;DHT22;9621;48.690;9.466;2024-03-08T00:07:13;0.80;99.90
18974;DHT22;9621;48.690;9.466;2024-03-08T00:09:40;0.80;99.90
18974;DHT22;9621;48.690;9.466;2024-03-08T00:12:08;0.80;99.90
18974;DHT22;9621;48.690;9.466;2024-03-08T00:14:35;0.80;99.90
18974;DHT22;9621;48.690;9.466;2024-03-08T00:17:04;0.70;99.90
18974;DHT22;9621;48.690;9.466;2024-03-08T00:19:31;0.90;99.90
18974;DHT22;9621;48.690;9.466;2024-03-08T00:21:58;0.80;99.90
18974;DHT22;9621;48.690;9.466;2024-03-08T00:24:24;0.70;99.90
18974;DHT22;9621;48.690;9.466;2024-03-08T00:26:51;0.80;99.90
18974;DHT22;9621;48.690;9.466;2024-03-08T00:29:21;0.70;99.90
18974;DHT22;9621;48.690;9.466;2024-03-08T00:31:48;0.70;99.90
18974;DHT22;9621;48.690;9.466;2024-03-08T00:34:15;0.80;99.90
18974;DHT22;9621;48.690;9.466;2024-03-08T00:36:42;0.80;99.90
18974;DHT22;9621;48.690;9.466;2024-03-08T00:39:09;0.80;99.90
18974;DHT22;9621;48.690;9.466;2024-03-08T00:41:37;0.80;99.90
18974;DHT22;9621;48.690;9.466;2024-03-08T00:44:04;0.90;99.90
18974;DHT22;9621;48.690;9.466;2024-03-08T00:46:33;0.80;99.90
18974;DHT22;9621;48.690;9.466;2024-03-08T00:49:00;0.90;99.90
18974;DHT22;9621;48.690;9.466;2024-03-08T00:51:27;0.90;99.90
18974;DHT22;9621;48.690;9.466;2024-03-08T00:53:54;0.90;99.90
18974;DHT22;9621;48.690;9.466;2024-03-08T00:56:21;1.00;99.90
18974;DHT22;9621;48.690;9.466;2024-03-08T00:58:50;1.00;99.90
18974;DHT22;9621;48.690;9.466;2024-03-08T01:01:18;1.00;99.90
18974;DHT22;9621;48.690;9.466;2024-03-08T01:03:47;0.90;99.90
18974;DHT22;9621;48.690;9.466;2024-03-08T01:06:14;0.90;99.90
18974;DHT22;9621;48.690;9.466;2024-03-08T01:08:41;0.80;99.90
18974;DHT22;9621;48.690;9.466;2024-03-08T01:11:08;0.90;99.90
18974;DHT22;9621;48.690;9.466;2024-03-08T01:13:36;0.80;99.90
18974;DHT22;9621;48.690;9.466;2024-03-08T01:16:04;0.80;99.90
18974;DHT22;9621;48.690;9.466;2024-03-08T01:18:31;0.70;99.90
18974;DHT22;9621;48.690;9.466;2024-03-08T01:20:59;0.70;99.90
18974;DHT22;9621;48.690;9.466;2024-03-08T01:23:26;0.70;99.90
18974;DHT22;9621;48.690;9.466;2024-03-08T01:25:54;0.70;99.90
18974;DHT22;9621;48.690;9.466;2024-03-08T01:28:23;0.80;99.90
18974;DHT22;9621;48.690;9.466;2024-03-08T01:30:50;0.70;99.90
18974;DHT22;9621;48.690;9.466;2024-03-08T01:33:21;0.70;99.90
18974;DHT22;9621;48.690;9.466;2024-03-08T01:35:48;0.70;99.90
18974;DHT22;9621;48.690;9.466;2024-03-08T01:38:17;0.70;99.90
18974;DHT22;9621;48.690;9.466;2024-03-08T01:40:44;0.80;99.90
18974;DHT22;9621;48.690;9.466;2024-03-08T01:43:18;0.60;99.90
18974;DHT22;9621;48.690;9.466;2024-03-08T01:45:46;0.60;99.90
18974;DHT22;9621;48.690;9.466;2024-03-08T01:48:13;0.60;99.90
18974;DHT22;9621;48.690;9.466;2024-03-08T01:50:41;0.50;99.90
18974;DHT22;9621;48.690;9.466;2024-03-08T01:53:08;0.50;99.90
18974;DHT22;9621;48.690;9.466;2024-03-08T01:55:39;0.50;99.90
18974;DHT22;9621;48.690;9.466;2024-03-08T01:58:06;0.40;99.90
18974;DHT22;9621;48.690;9.466;2024-03-08T02:00:35;0.40;99.90
18974;DHT22;9621;48.690;9.466;2024-03-08T02:03:03;0.30;99.90
18974;DHT22;9621;48.690;9.466;2024-03-08T02:05:31;0.30;99.90
18974;DHT22;9621;48.690;9.466;2024-03-08T02:07:58;0.30;99.90
18974;DHT22;9621;48.690;9.466;2024-03-08T02:10:25;0.40;99.90
18974;DHT22;9621;48.690;9.466;2024-03-08T02:12:54;0.20;99.90
18974;DHT22;9621;48.690;9.466;2024-03-08T02:15:21;0.30;99.90
18974;DHT22;9621;48.690;9.466;2024-03-08T02:17:48;0.20;99.90
18974;DHT22;9621;48.690;9.466;2024-03-08T02:20:15;0.20;99.90
18974;DHT22;9621;48.690;9.466;2024-03-08T02:22:46;0.30;99.90
18974;DHT22;9621;48.690;9.466;2024-03-08T02:25:13;0.20;99.90
18974;DHT22;9621;48.690;9.466;2024-03-08T02:27:41;0.20;99.90
18974;DHT22;9621;48.690;9.466;2024-03-08T02:30:09;0.20;99.90
18974;DHT22;9621;48.690;9.466;2024-03-08T02:32:38;0.20;99.90
18974;DHT22;9621;48.690;9.466;2024-03-08T02:35:05;0.20;99.90
18974;DHT22;9621;48.690;9.466;2024-03-08T02:37:32;0.20;99.90
18974;DHT22;9621;48.690;9.466;2024-03-08T02:40:00;0.20;99.90
18974;DHT22;9621;48.690;9.466;2024-03-08T02:42:27;0.20;99.90
18974;DHT22;9621;48.690;9.466;2024-03-08T02:44:54;0.20;99.90
18974;DHT22;9621;48.690;9.466;2024-03-08T02:47:21;0.20;99.90
18974;DHT22;9621;48.690;9.466;2024-03-08T02:49:48;0.20;99.90
18974;DHT22;9621;48.690;9.466;2024-03-08T02:52:15;0.10;99.90
18974;DHT22;9621;48.690;9.466;2024-03-08T02:54:42;0.10;99.90
18974;DHT22;9621;48.690;9.466;2024-03-08T02:57:13;0.10;99.90
18974;DHT22;9621;48.690;9.466;2024-03-08T02:59:40;0.10;99.90
18974;DHT22;9621;48.690;9.466;2024-03-08T03:02:07;0.10;99.90
18974;DHT22;9621;48.690;9.466;2024-03-08T03:04:36;0.10;99.90
18974;DHT22;9621;48.690;9.466;2024-03-08T03:07:03;0.00;99.90
18974;DHT22;9621;48.690;9.466;2024-03-08T03:09:30;0.00;99.90
18974;DHT22;9621;48.690;9.466;2024-03-08T03:11:58;0.00;99.90
18974;DHT22;9621;48.690;9.466;2024-03-08T03:14:26;0.00;99.90
18974;DHT22;9621;48.690;9.466;2024-03-08T03:16:53;0.00;99.90
18974;DHT22;9621;48.690;9.466;2024-03-08T03:19:20;-0.10;99.90
18974;DHT22;9621;48.690;9.466;2024-03-08T03:21:47;-0.10;99.90
18974;DHT22;9621;48.690;9.466;2024-03-08T03:24:14;-0.10;99.90
18974;DHT22;9621;48.690;9.466;2024-03-08T03:26:42;-0.10;99.90
18974;DHT22;9621;48.690;9.466;2024-03-08T03:29:09;-0.10;99.90
18974;DHT22;9621;48.690;9.466;2024-03-08T03:31:38;-0.10;99.90
18974;DHT22;9621;48.690;9.466;2024-03-08T03:34:05;-0.20;99.90
18974;DHT22;9621;48.690;9.466;2024-03-08T03:36:34;-0.20;99.90
18974;DHT22;9621;48.690;9.466;2024-03-08T03:39:03;-0.20;99.90
18974;DHT22;9621;48.690;9.466;2024-03-08T03:41:36;-0.20;99.90
18974;DHT22;9621;48.690;9.466;2024-03-08T03:44:04;-0.20;99.90
18974;DHT22;9621;48.690;9.466;2024-03-08T03:46:32;-0.20;99.90
18974;DHT22;9621;48.690;9.466;2024-03-08T03:49:00;-0.30;99.90
18974;DHT22;9621;48.690;9.466;2024-03-08T03:51:29;-0.30;99.90
18974;DHT22;9621;48.690;9.466;2024-03-08T03:53:56;-0.30;99.90
18974;DHT22;9621;48.690;9.466;2024-03-08T03:56:25;-0.30;99.90
18974;DHT22;9621;48.690;9.466;2024-03-08T03:58:53;-0.40;99.90
18974;DHT22;9621;48.690;9.466;2024-03-08T04:01:20;-0.40;99.90
18974;DHT22;9621;48.690;9.466;2024-03-08T04:03:46;-0.40;99.90
18974;DHT22;9621;48.690;9.466;2024-03-08T04:06:15;-0.50;99.90
18974;DHT22;9621;48.690;9.466;2024-03-08T04:08:42;-0.50;99.90
18974;DHT22;9621;48.690;9.466;2024-03-08T04:11:09;-0.50;99.90
18974;DHT22;9621;48.690;9.466;2024-03-08T04:13:36;-0.40;99.90
18974;DHT22;9621;48.690;9.466;2024-03-08T04:16:03;-0.50;99.90
18974;DHT22;9621;48.690;9.466;2024-03-08T04:18:33;-0.50;99.90
18974;DHT22;9621;48.690;9.466;2024-03-08T04:21:01;-0.60;99.90
18974;DHT22;9621;48.690;9.466;2024-03-08T04:23:29;-0.60;99.90
18974;DHT22;9621;48.690;9.466;2024-03-08T04:25:56;-0.60;99.90
18974;DHT22;9621;48.690;9.466;2024-03-08T04:28:23;-0.60;99.90
18974;DHT22;9621;48.690;9.466;2024-03-08T04:30:50;-0.60;99.90
18974;DHT22;9621;48.690;9.466;2024-03-08T04:33:17;-0.60;99.90
18974;DHT22;9621;48.690;9.466;2024-03-08T04:35:45;-0.60;99.90
18974;DHT22;9621;48.690;9.466;2024-03-08T04:38:12;-0.60;99.90
18974;DHT22;9621;48.690;9.466;2024-03-08T04:40:41;-0.60;99.90
18974;DHT22;9621;48.690;9.466;2024-03-08T04:43:09;-0.60;99.90
18974;DHT22;9621;48.690;9.466;2024-03-08T04:45:36;-0.60;99.90
18974;DHT22;9621;48.690;9.466;2024-03-08T04:48:03;-0.60;99.90
18974;DHT22;9621;48.690;9.466;2024-03-08T04:50:30;-0.50;99.90
18974;DHT22;9621;48.690;9.466;2024-03-08T04:52:57;-0.40;99.90
18974;DHT22;9621;48.690;9.466;2024-03-08T04:55:24;-0.50;99.90
18974;DHT22;9621;48.690;9.466;2024-03-08T04:57:52;-0.50;99.90
18974;DHT22;9621;48.690;9.466;2024-03-08T05:00:19;-0.50;99.90
18974;DHT22;9621;48.690;9.466;2024-03-08T05:02:46;-0.40;99.90
18974;DHT22;9621;48.690;9.466;2024-03-08T05:05:13;-0.40;99.90
18974;DHT22;9621;48.690;9.466;2024-03-08T05:07:41;-0.50;99.90
18974;DHT22;9621;48.690;9.466;2024-03-08T05:10:09;-0.50;99.90
18974;DHT22;9621;48.690;9.466;2024-03-08T05:12:36;-0.50;99.90
18974;DHT22;9621;48.690;9.466;2024-03-08T05:15:06;-0.50;99.90
18974;DHT22;9621;48.690;9.466;2024-03-08T05:17:36;-0.50;99.90
18974;DHT22;9621;48.690;9.466;2024-03-08T05:20:03;-0.60;99.90
18974;DHT22;9621;48.690;9.466;2024-03-08T05:22:33;-0.60;99.90
18974;DHT22;9621;48.690;9.466;2024-03-08T05:25:01;-0.60;99.90
18974;DHT22;9621;48.690;9.466;2024-03-08T05:27:28;-0.60;99.90
18974;DHT22;9621;48.690;9.466;2024-03-08T05:29:55;-0.70;99.90
18974;DHT22;9621;48.690;9.466;2024-03-08T05:32:23;-0.70;99.90
18974;DHT22;9621;48.690;9.466;2024-03-08T05:34:52;-0.70;99.90
18974;DHT22;9621;48.690;9.466;2024-03-08T05:37:19;-0.60;99.90
18974;DHT22;9621;48.690;9.466;2024-03-08T05:39:46;-0.50;99.90
18974;DHT22;9621;48.690;9.466;2024-03-08T05:42:13;-0.80;99.90
18974;DHT22;9621;48.690;9.466;2024-03-08T05:44:40;-0.80;99.90
18974;DHT22;9621;48.690;9.466;2024-03-08T05:47:07;-0.80;99.90
18974;DHT22;9621;48.690;9.466;2024-03-08T05:49:35;-0.80;99.90
18974;DHT22;9621;48.690;9.466;2024-03-08T05:52:02;-0.70;99.90
18974;DHT22;9621;48.690;9.466;2024-03-08T05:54:30;-0.70;99.90
18974;DHT22;9621;48.690;9.466;2024-03-08T05:56:58;-0.60;99.90
18974;DHT22;9621;48.690;9.466;2024-03-08T05:59:25;-0.60;99.90
18974;DHT22;9621;48.690;9.466;2024-03-08T06:01:52;-0.60;99.90
18974;DHT22;9621;48.690;9.466;2024-03-08T06:04:20;-0.50;99.90
18974;DHT22;9621;48.690;9.466;2024-03-08T06:06:48;-0.50;99.90
18974;DHT22;9621;48.690;9.466;2024-03-08T06:09:17;-0.40;99.90
18974;DHT22;9621;48.690;9.466;2024-03-08T06:11:48;-0.40;99.90
18974;DHT22;9621;48.690;9.466;2024-03-08T06:14:15;-0.40;99.90
18974;DHT22;9621;48.690;9.466;2024-03-08T06:16:44;-0.20;99.90
18974;DHT22;9621;48.690;9.466;2024-03-08T06:19:11;-0.30;99.90
18974;DHT22;9621;48.690;9.466;2024-03-08T06:21:38;-0.30;99.90
18974;DHT22;9621;48.690;9.466;2024-03-08T06:24:07;-0.10;99.90
18974;DHT22;9621;48.690;9.466;2024-03-08T06:26:34;-0.10;99.90
18974;DHT22;9621;48.690;9.466;2024-03-08T06:29:03;-0.10;99.90
18974;DHT22;9621;48.690;9.466;2024-03-08T06:31:32;0.10;99.90
18974;DHT22;9621;48.690;9.466;2024-03-08T06:33:59;0.00;99.90
18974;DHT22;9621;48.690;9.466;2024-03-08T06:36:26;0.10;99.90
18974;DHT22;9621;48.690;9.466;2024-03-08T06:38:53;0.20;99.90
18974;DHT22;9621;48.690;9.466;2024-03-08T06:41:23;0.20;99.90
18974;DHT22;9621;48.690;9.466;2024-03-08T06:43:50;0.30;99.90
18974;DHT22;9621;48.690;9.466;2024-03-08T06:46:22;0.40;99.90
18974;DHT22;9621;48.690;9.466;2024-03-08T06:48:49;0.50;99.90
18974;DHT22;9621;48.690;9.466;2024-03-08T06:51:16;0.50;99.90
18974;DHT22;9621;48.690;9.466;2024-03-08T06:53:43;0.70;99.90
18974;DHT22;9621;48.690;9.466;2024-03-08T06:56:10;0.70;99.90
18974;DHT22;9621;48.690;9.466;2024-03-08T06:58:39;0.80;99.90
18974;DHT22;9621;48.690;9.466;2024-03-08T07:01:06;0.90;99.90
18974;DHT22;9621;48.690;9.466;2024-03-08T07:03:33;1.00;99.90
18974;DHT22;9621;48.690;9.466;2024-03-08T07:06:00;1.10;99.90
18974;DHT22;9621;48.690;9.466;2024-03-08T07:08:28;1.30;99.90
18974;DHT22;9621;48.690;9.466;2024-03-08T07:10:55;1.20;99.90
18974;DHT22;9621;48.690;9.466;2024-03-08T07:13:23;1.30;99.90
18974;DHT22;9621;48.690;9.466;2024-03-08T07:15:52;1.40;99.90
18974;DHT22;9621;48.690;9.466;2024-03-08T07:18:18;1.50;99.90
18974;DHT22;9621;48.690;9.466;2024-03-08T07:20:47;1.50;99.90
18974;DHT22;9621;48.690;9.466;2024-03-08T07:23:15;1.60;99.90
18974;DHT22;9621;48.690;9.466;2024-03-08T07:26:02;1.70;99.90
18974;DHT22;9621;48.690;9.466;2024-03-08T07:28:29;1.80;99.90
18974;DHT22;9621;48.690;9.466;2024-03-08T07:30:58;1.90;99.90
18974;DHT22;9621;48.690;9.466;2024-03-08T07:33:38;2.00;99.90
18974;DHT22;9621;48.690;9.466;2024-03-08T07:36:05;2.00;99.90
18974;DHT22;9621;48.690;9.466;2024-03-08T07:38:32;2.10;99.90
18974;DHT22;9621;48.690;9.466;2024-03-08T07:41:00;2.20;99.90
18974;DHT22;9621;48.690;9.466;2024-03-08T07:43:27;2.20;99.90
18974;DHT22;9621;48.690;9.466;2024-03-08T07:45:54;2.30;99.90
18974;DHT22;9621;48.690;9.466;2024-03-08T07:48:24;2.30;99.90
18974;DHT22;9621;48.690;9.466;2024-03-08T07:50:52;2.40;99.90
18974;DHT22;9621;48.690;9.466;2024-03-08T07:53:19;2.40;99.90
18974;DHT22;9621;48.690;9.466;2024-03-08T07:55:46;2.50;99.90
18974;DHT22;9621;48.690;9.466;2024-03-08T07:58:14;2.60;99.90
18974;DHT22;9621;48.690;9.466;2024-03-08T08:00:40;2.70;99.90
18974;DHT22;9621;48.690;9.466;2024-03-08T08:03:08;2.60;99.90
18974;DHT22;9621;48.690;9.466;2024-03-08T08:05:37;2.60;99.90
18974;DHT22;9621;48.690;9.466;2024-03-08T08:08:05;2.80;99.90
18974;DHT22;9621;48.690;9.466;2024-03-08T08:10:32;2.70;99.90
18974;DHT22;9621;48.690;9.466;2024-03-08T08:12:59;2.70;99.90
18974;DHT22;9621;48.690;9.466;2024-03-08T08:15:29;2.80;99.90
18974;DHT22;9621;48.690;9.466;2024-03-08T08:17:56;2.80;99.90
18974;DHT22;9621;48.690;9.466;2024-03-08T08:20:22;2.80;99.90
18974;DHT22;9621;48.690;9.466;2024-03-08T08:22:51;2.90;99.90
18974;DHT22;9621;48.690;9.466;2024-03-08T08:25:20;2.90;99.90
18974;DHT22;9621;48.690;9.466;2024-03-08T08:27:49;2.90;99.90
18974;DHT22;9621;48.690;9.466;2024-03-08T08:30:17;2.90;99.90
18974;DHT22;9621;48.690;9.466;2024-03-08T08:32:43;3.00;99.90
18974;DHT22;9621;48.690;9.466;2024-03-08T08:35:12;3.10;99.90
18974;DHT22;9621;48.690;9.466;2024-03-08T08:37:39;3.00;99.90
18974;DHT22;9621;48.690;9.466;2024-03-08T08:40:09;3.10;99.90
18974;DHT22;9621;48.690;9.466;2024-03-08T08:42:40;3.10;99.90
18974;DHT22;9621;48.690;9.466;2024-03-08T08:45:08;3.20;99.90
18974;DHT22;9621;48.690;9.466;2024-03-08T08:47:35;3.20;99.90
18974;DHT22;9621;48.690;9.466;2024-03-08T08:50:02;3.20;99.90
18974;DHT22;9621;48.690;9.466;2024-03-08T08:52:30;3.30;99.90
18974;DHT22;9621;48.690;9.466;2024-03-08T08:54:57;3.30;99.90
18974;DHT22;9621;48.690;9.466;2024-03-08T08:57:25;3.30;99.90
18974;DHT22;9621;48.690;9.466;2024-03-08T08:59:52;3.40;99.90
18974;DHT22;9621;48.690;9.466;2024-03-08T09:02:20;3.40;99.90
18974;DHT22;9621;48.690;9.466;2024-03-08T09:04:47;3.40;99.90
18974;DHT22;9621;48.690;9.466;2024-03-08T09:07:14;3.50;99.90
18974;DHT22;9621;48.690;9.466;2024-03-08T09:09:44;3.50;99.90
18974;DHT22;9621;48.690;9.466;2024-03-08T09:12:11;3.70;99.90
18974;DHT22;9621;48.690;9.466;2024-03-08T09:14:40;3.80;99.90
18974;DHT22;9621;48.690;9.466;2024-03-08T09:17:07;3.90;99.90
18974;DHT22;9621;48.690;9.466;2024-03-08T09:19:34;4.00;99.90
18974;DHT22;9621;48.690;9.466;2024-03-08T09:22:02;4.10;99.90
18974;DHT22;9621;48.690;9.466;2024-03-08T09:24:29;4.20;99.90
18974;DHT22;9621;48.690;9.466;2024-03-08T09:26:56;4.30;99.90
18974;DHT22;9621;48.690;9.466;2024-03-08T09:29:25;4.50;99.90
18974;DHT22;9621;48.690;9.466;2024-03-08T09:31:53;4.50;99.90
18974;DHT22;9621;48.690;9.466;2024-03-08T09:34:21;4.70;99.90
18974;DHT22;9621;48.690;9.466;2024-03-08T09:36:49;4.70;99.90
18974;DHT22;9621;48.690;9.466;2024-03-08T09:39:16;4.80;99.90
18974;DHT22;9621;48.690;9.466;2024-03-08T09:41:46;4.90;99.90
18974;DHT22;9621;48.690;9.466;2024-03-08T09:44:13;4.90;99.90
18974;DHT22;9621;48.690;9.466;2024-03-08T09:46:40;4.90;99.90
18974;DHT22;9621;48.690;9.466;2024-03-08T09:49:10;4.90;99.90
18974;DHT22;9621;48.690;9.466;2024-03-08T09:51:38;4.80;99.90
18974;DHT22;9621;48.690;9.466;2024-03-08T09:54:07;4.80;99.90
18974;DHT22;9621;48.690;9.466;2024-03-08T09:56:35;4.80;99.90
18974;DHT22;9621;48.690;9.466;2024-03-08T09:59:02;4.80;99.90
18974;DHT22;9621;48.690;9.466;2024-03-08T10:01:49;4.80;99.90
18974;DHT22;9621;48.690;9.466;2024-03-08T10:04:18;4.90;99.90
18974;DHT22;9621;48.690;9.466;2024-03-08T10:06:46;4.90;99.90
18974;DHT22;9621;48.690;9.466;2024-03-08T10:09:14;5.00;99.90
18974;DHT22;9621;48.690;9.466;2024-03-08T10:11:42;5.10;99.90
18974;DHT22;9621;48.690;9.466;2024-03-08T10:14:09;5.20;99.90
18974;DHT22;9621;48.690;9.466;2024-03-08T10:16:37;5.20;99.90
18974;DHT22;9621;48.690;9.466;2024-03-08T10:19:05;5.20;99.90
18974;DHT22;9621;48.690;9.466;2024-03-08T10:21:33;5.30;99.90
18974;DHT22;9621;48.690;9.466;2024-03-08T10:24:02;5.20;99.90
18974;DHT22;9621;48.690;9.466;2024-03-08T10:26:30;5.20;99.90
18974;DHT22;9621;48.690;9.466;2024-03-08T10:28:57;5.30;99.90
18974;DHT22;9621;48.690;9.466;2024-03-08T10:31:24;5.30;99.90
18974;DHT22;9621;48.690;9.466;2024-03-08T10:33:51;5.30;99.90
18974;DHT22;9621;48.690;9.466;2024-03-08T10:36:18;5.40;99.90
18974;DHT22;9621;48.690;9.466;2024-03-08T10:38:47;5.50;99.90
18974;DHT22;9621;48.690;9.466;2024-03-08T10:41:19;5.60;99.90
18974;DHT22;9621;48.690;9.466;2024-03-08T10:44:02;5.70;99.90
18974;DHT22;9621;48.690;9.466;2024-03-08T10:46:47;5.80;99.90
18974;DHT22;9621;48.690;9.466;2024-03-08T10:49:31;5.80;99.90
18974;DHT22;9621;48.690;9.466;2024-03-08T10:52:03;5.80;99.90
18974;DHT22;9621;48.690;9.466;2024-03-08T10:54:34;5.80;99.90
18974;DHT22;9621;48.690;9.466;2024-03-08T10:57:03;5.80;99.90
18974;DHT22;9621;48.690;9.466;2024-03-08T10:59:34;6.00;99.90
18974;DHT22;9621;48.690;9.466;2024-03-08T11:02:02;6.10;99.90
18974;DHT22;9621;48.690;9.466;2024-03-08T11:04:31;6.20;99.90
18974;DHT22;9621;48.690;9.466;2024-03-08T11:07:00;6.30;99.90
18974;DHT22;9621;48.690;9.466;2024-03-08T11:09:35;6.30;99.90
18974;DHT22;9621;48.690;9.466;2024-03-08T11:12:19;6.50;99.90
18974;DHT22;9621;48.690;9.466;2024-03-08T11:14:47;6.60;99.90
18974;DHT22;9621;48.690;9.466;2024-03-08T11:17:15;6.60;99.90
18974;DHT22;9621;48.690;9.466;2024-03-08T11:19:46;6.70;99.90
18974;DHT22;9621;48.690;9.466;2024-03-08T11:22:28;7.00;99.90
18974;DHT22;9621;48.690;9.466;2024-03-08T11:25:02;7.10;99.90
18974;DHT22;9621;48.690;9.466;2024-03-08T11:27:31;7.30;99.90
18974;DHT22;9621;48.690;9.466;2024-03-08T11:30:03;7.40;99.90
18974;DHT22;9621;48.690;9.466;2024-03-08T11:32:36;7.50;99.90
18974;DHT22;9621;48.690;9.466;2024-03-08T11:35:06;7.60;99.90
18974;DHT22;9621;48.690;9.466;2024-03-08T11:37:35;7.80;99.90
18974;DHT22;9621;48.690;9.466;2024-03-08T11:40:11;7.90;99.90
18974;DHT22;9621;48.690;9.466;2024-03-08T11:42:44;8.10;99.90
18974;DHT22;9621;48.690;9.466;2024-03-08T11:45:13;8.20;99.90
18974;DHT22;9621;48.690;9.466;2024-03-08T11:47:42;8.40;99.90
18974;DHT22;9621;48.690;9.466;2024-03-08T11:50:12;8.70;99.90
18974;DHT22;9621;48.690;9.466;2024-03-08T11:52:39;9.10;99.90
18974;DHT22;9621;48.690;9.466;2024-03-08T11:55:08;9.50;99.90
18974;DHT22;9621;48.690;9.466;2024-03-08T11:57:36;9.90;99.90
18974;DHT22;9621;48.690;9.466;2024-03-08T12:00:04;10.30;99.90
18974;DHT22;9621;48.690;9.466;2024-03-08T12:02:33;10.60;99.90
18974;DHT22;9621;48.690;9.466;2024-03-08T12:05:03;10.90;99.90
18974;DHT22;9621;48.690;9.466;2024-03-08T12:07:31;11.10;99.90
18974;DHT22;9621;48.690;9.466;2024-03-08T12:10:16;11.30;99.90
18974;DHT22;9621;48.690;9.466;2024-03-08T12:12:44;11.50;99.90
18974;DHT22;9621;48.690;9.466;2024-03-08T12:15:12;11.60;99.90
18974;DHT22;9621;48.690;9.466;2024-03-08T12:17:40;11.60;99.90
18974;DHT22;9621;48.690;9.466;2024-03-08T12:20:20;11.60;99.90
18974;DHT22;9621;48.690;9.466;2024-03-08T12:22:48;11.50;99.90
18974;DHT22;9621;48.690;9.466;2024-03-08T12:25:19;11.30;99.90
18974;DHT22;9621;48.690;9.466;2024-03-08T12:27:46;11.20;99.90
18974;DHT22;9621;48.690;9.466;2024-03-08T12:30:18;11.10;99.90
18974;DHT22;9621;48.690;9.466;2024-03-08T12:32:48;11.10;99.90
18974;DHT22;9621;48.690;9.466;2024-03-08T12:35:17;11.10;99.90
18974;DHT22;9621;48.690;9.466;2024-03-08T12:37:44;11.10;99.90
18974;DHT22;9621;48.690;9.466;2024-03-08T12:40:11;11.00;99.90
18974;DHT22;9621;48.690;9.466;2024-03-08T12:42:43;10.90;99.90
18974;DHT22;9621;48.690;9.466;2024-03-08T12:45:13;10.80;99.90
18974;DHT22;9621;48.690;9.466;2024-03-08T12:47:40;10.80;99.90
18974;DHT22;9621;48.690;9.466;2024-03-08T12:50:09;10.80;99.90
18974;DHT22;9621;48.690;9.466;2024-03-08T12:52:36;10.70;99.90
18974;DHT22;9621;48.690;9.466;2024-03-08T12:55:04;10.70;99.90
18974;DHT22;9621;48.690;9.466;2024-03-08T12:57:33;10.70;99.90
18974;DHT22;9621;48.690;9.466;2024-03-08T13:00:04;10.70;99.90
18974;DHT22;9621;48.690;9.466;2024-03-08T13:02:37;10.70;99.90
18974;DHT22;9621;48.690;9.466;2024-03-08T13:05:05;10.70;99.90
18974;DHT22;9621;48.690;9.466;2024-03-08T13:07:35;10.70;99.90
18974;DHT22;9621;48.690;9.466;2024-03-08T13:10:04;10.80;99.90
18974;DHT22;9621;48.690;9.466;2024-03-08T13:12:32;10.70;99.90
18974;DHT22;9621;48.690;9.466;2024-03-08T13:15:03;10.70;99.90
18974;DHT22;9621;48.690;9.466;2024-03-08T13:17:30;10.80;99.90
18974;DHT22;9621;48.690;9.466;2024-03-08T13:19:57;10.80;99.90
18974;DHT22;9621;48.690;9.466;2024-03-08T13:22:24;10.80;99.90
18974;DHT22;9621;48.690;9.466;2024-03-08T13:24:53;10.80;99.90
18974;DHT22;9621;48.690;9.466;2024-03-08T13:27:20;10.70;99.90
18974;DHT22;9621;48.690;9.466;2024-03-08T13:29:49;10.60;99.90
18974;DHT22;9621;48.690;9.466;2024-03-08T13:32:18;10.50;99.90
18974;DHT22;9621;48.690;9.466;2024-03-08T13:34:46;10.50;99.90
18974;DHT22;9621;48.690;9.466;2024-03-08T13:37:14;10.40;99.90
18974;DHT22;9621;48.690;9.466;2024-03-08T13:39:42;10.40;99.90
18974;DHT22;9621;48.690;9.466;2024-03-08T13:42:10;10.40;99.90
18974;DHT22;9621;48.690;9.466;2024-03-08T13:44:39;10.40;99.90
18974;DHT22;9621;48.690;9.466;2024-03-08T13:47:07;10.40;99.90
18974;DHT22;9621;48.690;9.466;2024-03-08T13:49:35;10.40;99.90
18974;DHT22;9621;48.690;9.466;2024-03-08T13:52:03;10.40;99.90
18974;DHT22;9621;48.690;9.466;2024-03-08T13:54:30;10.40;99.90
18974;DHT22;9621;48.690;9.466;2024-03-08T13:56:57;10.30;99.90
18974;DHT22;9621;48.690;9.466;2024-03-08T13:59:24;10.30;99.90
18974;DHT22;9621;48.690;9.466;2024-03-08T14:01:55;10.20;99.90
18974;DHT22;9621;48.690;9.466;2024-03-08T14:04:23;10.00;99.90
18974;DHT22;9621;48.690;9.466;2024-03-08T14:06:53;9.80;99.90
18974;DHT22;9621;48.690;9.466;2024-03-08T14:09:23;9.50;99.90
18974;DHT22;9621;48.690;9.466;2024-03-08T14:11:51;9.30;99.90
18974;DHT22;9621;48.690;9.466;2024-03-08T14:14:20;9.10;99.90
18974;DHT22;9621;48.690;9.466;2024-03-08T14:16:48;8.80;99.90
18974;DHT22;9621;48.690;9.466;2024-03-08T14:19:18;8.70;99.90
18974;DHT22;9621;48.690;9.466;2024-03-08T14:21:45;8.40;99.90
18974;DHT22;9621;48.690;9.466;2024-03-08T14:24:15;8.30;99.90
18974;DHT22;9621;48.690;9.466;2024-03-08T14:26:42;8.20;99.90
18974;DHT22;9621;48.690;9.466;2024-03-08T14:29:09;8.10;99.90
18974;DHT22;9621;48.690;9.466;2024-03-08T14:31:36;8.00;99.90
18974;DHT22;9621;48.690;9.466;2024-03-08T14:34:03;7.90;99.90
18974;DHT22;9621;48.690;9.466;2024-03-08T14:36:30;7.90;99.90
18974;DHT22;9621;48.690;9.466;2024-03-08T14:38:57;7.80;99.90
18974;DHT22;9621;48.690;9.466;2024-03-08T14:41:26;7.80;99.90
18974;DHT22;9621;48.690;9.466;2024-03-08T14:43:53;7.70;99.90
18974;DHT22;9621;48.690;9.466;2024-03-08T14:46:20;7.70;99.90
18974;DHT22;9621;48.690;9.466;2024-03-08T14:48:48;7.70;99.90
18974;DHT22;9621;48.690;9.466;2024-03-08T14:51:17;7.70;99.90
18974;DHT22;9621;48.690;9.466;2024-03-08T14:53:47;7.80;99.90
18974;DHT22;9621;48.690;9.466;2024-03-08T14:56:15;7.70;99.90
18974;DHT22;9621;48.690;9.466;2024-03-08T14:58:44;7.70;99.90
18974;DHT22;9621;48.690;9.466;2024-03-08T15:01:15;7.80;99.90
18974;DHT22;9621;48.690;9.466;2024-03-08T15:03:42;7.80;99.90
18974;DHT22;9621;48.690;9.466;2024-03-08T15:06:09;7.80;99.90
18974;DHT22;9621;48.690;9.466;2024-03-08T15:08:36;7.80;99.90
18974;DHT22;9621;48.690;9.466;2024-03-08T15:11:03;7.80;99.90
18974;DHT22;9621;48.690;9.466;2024-03-08T15:13:31;7.80;99.90
18974;DHT22;9621;48.690;9.466;2024-03-08T15:16:07;7.80;99.90
18974;DHT22;9621;48.690;9.466;2024-03-08T15:18:34;7.80;99.90
18974;DHT22;9621;48.690;9.466;2024-03-08T15:21:04;7.90;99.90
18974;DHT22;9621;48.690;9.466;2024-03-08T15:23:34;7.90;99.90
18974;DHT22;9621;48.690;9.466;2024-03-08T15:26:01;7.90;99.90
18974;DHT22;9621;48.690;9.466;2024-03-08T15:28:29;7.90;99.90
18974;DHT22;9621;48.690;9.466;2024-03-08T15:31:03;7.90;99.90
18974;DHT22;9621;48.690;9.466;2024-03-08T15:33:34;8.00;99.90
18974;DHT22;9621;48.690;9.466;2024-03-08T15:36:07;7.90;99.90
18974;DHT22;9621;48.690;9.466;2024-03-08T15:38:35;8.00;99.90
18974;DHT22;9621;48.690;9.466;2024-03-08T15:41:02;8.00;99.90
18974;DHT22;9621;48.690;9.466;2024-03-08T15:43:34;8.00;99.90
18974;DHT22;9621;48.690;9.466;2024-03-08T15:46:02;8.10;99.90
18974;DHT22;9621;48.690;9.466;2024-03-08T15:48:30;8.10;99.90
18974;DHT22;9621;48.690;9.466;2024-03-08T15:51:00;8.00;99.90
18974;DHT22;9621;48.690;9.466;2024-03-08T15:53:30;8.10;99.90
18974;DHT22;9621;48.690;9.466;2024-03-08T15:55:57;8.10;99.90
18974;DHT22;9621;48.690;9.466;2024-03-08T15:58:24;8.10;99.90
18974;DHT22;9621;48.690;9.466;2024-03-08T16:00:51;8.10;99.90
18974;DHT22;9621;48.690;9.466;2024-03-08T16:03:19;8.10;99.90
18974;DHT22;9621;48.690;9.466;2024-03-08T16:05:47;8.00;99.90